sensor_id;sensor_type;location;lat;lon;timestamp;P1;durP1;ratioP1;P2;durP2;ratioP2
9986;SDS011;5033;46.310;11.214;2024-01-16T00:02:04;4.18;;;3.88;;
9986;SDS011;5033;46.310;11.214;2024-01-16T00:04:35;4.35;;;4.05;;
9986;SDS011;5033;46.310;11.214;2024-01-16T00:07:05;4.20;;;3.90;;
9986;SDS011;5033;46.310;11.214;2024-01-16T00:09:32;3.65;;;3.45;;
9986;SDS011;5033;46.310;11.214;2024-01-16T00:12:00;3.85;;;3.65;;
9986;SDS011;5033;46.310;11.214;2024-01-16T00:14:27;3.80;;;3.60;;
9986;SDS011;5033;46.310;11.214;2024-01-16T00:16:54;4.18;;;3.88;;
9986;SDS011;5033;46.310;11.214;2024-01-16T00:19:21;4.07;;;3.88;;
9986;SDS011;5033;46.310;11.214;2024-01-16T00:21:52;3.33;;;3.13;;
9986;SDS011;5033;46.310;11.214;2024-01-16T00:24:20;3.58;;;3.38;;
9986;SDS011;5033;46.310;11.214;2024-01-16T00:26:48;3.92;;;3.72;;
9986;SDS011;5033;46.310;11.214;2024-01-16T00:29:16;3.60;;;3.40;;
9986;SDS011;5033;46.310;11.214;2024-01-16T00:31:43;4.97;;;3.20;;
9986;SDS011;5033;46.310;11.214;2024-01-16T00:34:10;3.78;;;3.58;;
9986;SDS011;5033;46.310;11.214;2024-01-16T00:36:37;3.50;;;3.30;;
9986;SDS011;5033;46.310;11.214;2024-01-16T00:39:06;3.45;;;3.25;;
9986;SDS011;5033;46.310;11.214;2024-01-16T00:41:33;3.53;;;3.42;;
9986;SDS011;5033;46.310;11.214;2024-01-16T00:44:00;3.70;;;3.50;;
9986;SDS011;5033;46.310;11.214;2024-01-16T00:46:28;3.40;;;3.20;;
9986;SDS011;5033;46.310;11.214;2024-01-16T00:48:55;3.58;;;3.38;;
9986;SDS011;5033;46.310;11.214;2024-01-16T00:51:22;3.20;;;3.10;;
9986;SDS011;5033;46.310;11.214;2024-01-16T00:53:49;3.60;;;3.40;;
9986;SDS011;5033;46.310;11.214;2024-01-16T00:56:18;3.15;;;3.05;;
9986;SDS011;5033;46.310;11.214;2024-01-16T00:58:45;3.28;;;3.08;;
9986;SDS011;5033;46.310;11.214;2024-01-16T01:01:12;2.83;;;2.72;;
9986;SDS011;5033;46.310;11.214;2024-01-16T01:03:39;3.40;;;3.20;;
9986;SDS011;5033;46.310;11.214;2024-01-16T01:06:06;3.00;;;2.90;;
9986;SDS011;5033;46.310;11.214;2024-01-16T01:08:33;3.05;;;2.95;;
9986;SDS011;5033;46.310;11.214;2024-01-16T01:11:00;3.13;;;2.90;;
9986;SDS011;5033;46.310;11.214;2024-01-16T01:13:29;2.83;;;2.72;;
9986;SDS011;5033;46.310;11.214;2024-01-16T01:15:56;3.00;;;2.90;;
9986;SDS011;5033;46.310;11.214;2024-01-16T01:18:23;3.40;;;3.20;;
9986;SDS011;5033;46.310;11.214;2024-01-16T01:20:50;3.05;;;2.85;;
9986;SDS011;5033;46.310;11.214;2024-01-16T01:23:17;3.00;;;2.90;;
9986;SDS011;5033;46.310;11.214;2024-01-16T01:25:44;3.25;;;3.08;;
9986;SDS011;5033;46.310;11.214;2024-01-16T01:28:11;3.05;;;2.95;;
9986;SDS011;5033;46.310;11.214;2024-01-16T01:30:40;3.20;;;3.10;;
9986;SDS011;5033;46.310;11.214;2024-01-16T01:33:07;2.80;;;2.70;;
9986;SDS011;5033;46.310;11.214;2024-01-16T01:35:34;2.78;;;2.67;;
9986;SDS011;5033;46.310;11.214;2024-01-16T01:38:01;3.10;;;3.00;;
9986;SDS011;5033;46.310;11.214;2024-01-16T01:40:28;3.05;;;2.90;;
9986;SDS011;5033;46.310;11.214;2024-01-16T01:42:55;2.95;;;2.85;;
9986;SDS011;5033;46.310;11.214;2024-01-16T01:45:22;3.40;;;3.10;;
9986;SDS011;5033;46.310;11.214;2024-01-16T01:47:51;3.42;;;3.22;;
9986;SDS011;5033;46.310;11.214;2024-01-16T01:50:18;3.33;;;3.13;;
9986;SDS011;5033;46.310;11.214;2024-01-16T01:52:45;3.63;;;3.38;;
9986;SDS011;5033;46.310;11.214;2024-01-16T01:55:13;3.58;;;3.38;;
9986;SDS011;5033;46.310;11.214;2024-01-16T01:57:41;3.15;;;2.95;;
9986;SDS011;5033;46.310;11.214;2024-01-16T02:00:09;3.45;;;3.28;;
9986;SDS011;5033;46.310;11.214;2024-01-16T02:02:37;2.92;;;2.83;;
9986;SDS011;5033;46.310;11.214;2024-01-16T02:05:06;2.95;;;2.85;;
9986;SDS011;5033;46.310;11.214;2024-01-16T02:07:33;3.05;;;2.95;;
9986;SDS011;5033;46.310;11.214;2024-01-16T02:10:00;2.90;;;2.80;;
9986;SDS011;5033;46.310;11.214;2024-01-16T02:12:28;3.13;;;3.03;;
9986;SDS011;5033;46.310;11.214;2024-01-16T02:14:56;2.67;;;2.58;;
9986;SDS011;5033;46.310;11.214;2024-01-16T02:17:23;3.25;;;3.08;;
9986;SDS011;5033;46.310;11.214;2024-01-16T02:19:50;3.17;;;3.08;;
9986;SDS011;5033;46.310;11.214;2024-01-16T02:22:19;2.75;;;2.65;;
9986;SDS011;5033;46.310;11.214;2024-01-16T02:24:49;3.13;;;3.03;;
9986;SDS011;5033;46.310;11.214;2024-01-16T02:27:16;3.53;;;3.20;;
9986;SDS011;5033;46.310;11.214;2024-01-16T02:29:43;3.15;;;2.95;;
9986;SDS011;5033;46.310;11.214;2024-01-16T02:32:11;3.22;;;3.13;;
9986;SDS011;5033;46.310;11.214;2024-01-16T02:34:39;3.28;;;3.17;;
9986;SDS011;5033;46.310;11.214;2024-01-16T02:37:06;3.00;;;2.90;;
9986;SDS011;5033;46.310;11.214;2024-01-16T02:39:33;3.13;;;3.03;;
9986;SDS011;5033;46.310;11.214;2024-01-16T02:42:02;2.95;;;2.85;;
9986;SDS011;5033;46.310;11.214;2024-01-16T02:44:29;3.35;;;3.15;;
9986;SDS011;5033;46.310;11.214;2024-01-16T02:46:56;3.38;;;3.17;;
9986;SDS011;5033;46.310;11.214;2024-01-16T02:49:23;3.33;;;3.13;;
9986;SDS011;5033;46.310;11.214;2024-01-16T02:51:51;3.05;;;2.85;;
9986;SDS011;5033;46.310;11.214;2024-01-16T02:54:18;2.72;;;2.63;;
9986;SDS011;5033;46.310;11.214;2024-01-16T02:56:46;3.33;;;3.13;;
9986;SDS011;5033;46.310;11.214;2024-01-16T02:59:14;3.08;;;2.97;;
9986;SDS011;5033;46.310;11.214;2024-01-16T03:01:42;2.90;;;2.80;;
9986;SDS011;5033;46.310;11.214;2024-01-16T03:04:09;3.15;;;3.05;;
9986;SDS011;5033;46.310;11.214;2024-01-16T03:06:36;3.45;;;3.30;;
9986;SDS011;5033;46.310;11.214;2024-01-16T03:09:03;3.10;;;3.00;;
9986;SDS011;5033;46.310;11.214;2024-01-16T03:11:31;3.17;;;3.08;;
9986;SDS011;5033;46.310;11.214;2024-01-16T03:13:58;3.10;;;3.00;;
9986;SDS011;5033;46.310;11.214;2024-01-16T03:16:27;3.10;;;2.90;;
9986;SDS011;5033;46.310;11.214;2024-01-16T03:18:54;3.00;;;2.90;;
9986;SDS011;5033;46.310;11.214;2024-01-16T03:21:21;2.92;;;2.83;;
9986;SDS011;5033;46.310;11.214;2024-01-16T03:23:48;3.50;;;3.30;;
9986;SDS011;5033;46.310;11.214;2024-01-16T03:26:15;3.00;;;2.90;;
9986;SDS011;5033;46.310;11.214;2024-01-16T03:28:43;3.40;;;3.20;;
9986;SDS011;5033;46.310;11.214;2024-01-16T03:31:12;3.20;;;3.10;;
9986;SDS011;5033;46.310;11.214;2024-01-16T03:33:41;3.00;;;2.90;;
9986;SDS011;5033;46.310;11.214;2024-01-16T03:36:08;2.95;;;2.85;;
9986;SDS011;5033;46.310;11.214;2024-01-16T03:38:37;3.03;;;2.92;;
9986;SDS011;5033;46.310;11.214;2024-01-16T03:41:04;3.08;;;2.97;;
9986;SDS011;5033;46.310;11.214;2024-01-16T03:43:32;3.10;;;3.00;;
9986;SDS011;5033;46.310;11.214;2024-01-16T03:46:00;3.58;;;3.40;;
9986;SDS011;5033;46.310;11.214;2024-01-16T03:48:27;3.30;;;3.20;;
9986;SDS011;5033;46.310;11.214;2024-01-16T03:50:55;3.70;;;3.50;;
9986;SDS011;5033;46.310;11.214;2024-01-16T03:53:23;3.40;;;3.20;;
9986;SDS011;5033;46.310;11.214;2024-01-16T03:55:50;3.35;;;3.20;;
9986;SDS011;5033;46.310;11.214;2024-01-16T03:58:17;3.10;;;3.00;;
9986;SDS011;5033;46.310;11.214;2024-01-16T04:00:44;3.08;;;2.97;;
9986;SDS011;5033;46.310;11.214;2024-01-16T04:03:12;3.35;;;3.25;;
9986;SDS011;5033;46.310;11.214;2024-01-16T04:05:39;3.15;;;3.00;;
9986;SDS011;5033;46.310;11.214;2024-01-16T04:08:07;3.10;;;3.00;;
9986;SDS011;5033;46.310;11.214;2024-01-16T04:10:35;3.10;;;2.95;;
9986;SDS011;5033;46.310;11.214;2024-01-16T04:13:02;3.45;;;3.35;;
9986;SDS011;5033;46.310;11.214;2024-01-16T04:15:29;3.22;;;3.03;;
9986;SDS011;5033;46.310;11.214;2024-01-16T04:17:56;3.28;;;3.08;;
9986;SDS011;5033;46.310;11.214;2024-01-16T04:20:23;3.20;;;3.10;;
9986;SDS011;5033;46.310;11.214;2024-01-16T04:22:50;3.05;;;2.95;;
9986;SDS011;5033;46.310;11.214;2024-01-16T04:25:19;2.97;;;2.88;;
9986;SDS011;5033;46.310;11.214;2024-01-16T04:27:46;2.90;;;2.80;;
9986;SDS011;5033;46.310;11.214;2024-01-16T04:30:13;2.95;;;2.85;;
9986;SDS011;5033;46.310;11.214;2024-01-16T04:32:40;2.85;;;2.75;;
9986;SDS011;5033;46.310;11.214;2024-01-16T04:35:08;3.00;;;2.90;;
9986;SDS011;5033;46.310;11.214;2024-01-16T04:37:35;3.17;;;3.05;;
9986;SDS011;5033;46.310;11.214;2024-01-16T04:40:03;2.97;;;2.88;;
9986;SDS011;5033;46.310;11.214;2024-01-16T04:42:32;2.83;;;2.72;;
9986;SDS011;5033;46.310;11.214;2024-01-16T04:44:59;3.00;;;2.90;;
9986;SDS011;5033;46.310;11.214;2024-01-16T04:47:26;3.17;;;3.08;;
9986;SDS011;5033;46.310;11.214;2024-01-16T04:49:53;3.15;;;3.05;;
9986;SDS011;5033;46.310;11.214;2024-01-16T04:52:20;3.22;;;3.13;;
9986;SDS011;5033;46.310;11.214;2024-01-16T04:54:47;3.22;;;3.13;;
9986;SDS011;5033;46.310;11.214;2024-01-16T04:57:14;3.30;;;3.20;;
9986;SDS011;5033;46.310;11.214;2024-01-16T04:59:43;3.10;;;3.00;;
9986;SDS011;5033;46.310;11.214;2024-01-16T05:02:10;3.10;;;3.00;;
9986;SDS011;5033;46.310;11.214;2024-01-16T05:04:39;3.95;;;3.75;;
9986;SDS011;5033;46.310;11.214;2024-01-16T05:07:06;4.45;;;4.15;;
9986;SDS011;5033;46.310;11.214;2024-01-16T05:09:33;4.10;;;3.90;;
9986;SDS011;5033;46.310;11.214;2024-01-16T05:12:00;4.30;;;3.90;;
9986;SDS011;5033;46.310;11.214;2024-01-16T05:14:27;3.65;;;3.47;;
9986;SDS011;5033;46.310;11.214;2024-01-16T05:16:56;3.30;;;3.20;;
9986;SDS011;5033;46.310;11.214;2024-01-16T05:19:23;3.22;;;3.13;;
9986;SDS011;5033;46.310;11.214;2024-01-16T05:21:50;2.97;;;2.88;;
9986;SDS011;5033;46.310;11.214;2024-01-16T05:24:17;3.38;;;3.20;;
9986;SDS011;5033;46.310;11.214;2024-01-16T05:26:44;3.20;;;3.10;;
9986;SDS011;5033;46.310;11.214;2024-01-16T05:29:11;3.45;;;3.25;;
9986;SDS011;5033;46.310;11.214;2024-01-16T05:31:41;3.50;;;3.35;;
9986;SDS011;5033;46.310;11.214;2024-01-16T05:34:10;3.00;;;2.90;;
9986;SDS011;5033;46.310;11.214;2024-01-16T05:36:37;3.30;;;3.10;;
9986;SDS011;5033;46.310;11.214;2024-01-16T05:39:04;2.97;;;2.88;;
9986;SDS011;5033;46.310;11.214;2024-01-16T05:41:33;3.08;;;2.97;;
9986;SDS011;5033;46.310;11.214;2024-01-16T05:44:00;3.20;;;3.10;;
9986;SDS011;5033;46.310;11.214;2024-01-16T05:46:28;3.80;;;3.60;;
9986;SDS011;5033;46.310;11.214;2024-01-16T05:48:57;3.58;;;3.35;;
9986;SDS011;5033;46.310;11.214;2024-01-16T05:51:26;3.80;;;3.60;;
9986;SDS011;5033;46.310;11.214;2024-01-16T05:53:54;4.38;;;4.07;;
9986;SDS011;5033;46.310;11.214;2024-01-16T05:56:21;5.00;;;4.50;;
9986;SDS011;5033;46.310;11.214;2024-01-16T05:58:48;5.38;;;4.88;;
9986;SDS011;5033;46.310;11.214;2024-01-16T06:01:17;5.97;;;4.28;;
9986;SDS011;5033;46.310;11.214;2024-01-16T06:03:44;3.88;;;3.67;;
9986;SDS011;5033;46.310;11.214;2024-01-16T06:06:13;3.88;;;3.67;;
9986;SDS011;5033;46.310;11.214;2024-01-16T06:08:42;3.80;;;3.60;;
9986;SDS011;5033;46.310;11.214;2024-01-16T06:11:09;3.60;;;3.40;;
9986;SDS011;5033;46.310;11.214;2024-01-16T06:13:37;3.40;;;3.20;;
9986;SDS011;5033;46.310;11.214;2024-01-16T06:16:05;3.40;;;3.30;;
9986;SDS011;5033;46.310;11.214;2024-01-16T06:18:33;3.67;;;3.47;;
9986;SDS011;5033;46.310;11.214;2024-01-16T06:21:00;3.30;;;3.20;;
9986;SDS011;5033;46.310;11.214;2024-01-16T06:23:27;3.70;;;3.50;;
9986;SDS011;5033;46.310;11.214;2024-01-16T06:25:55;3.53;;;3.33;;
9986;SDS011;5033;46.310;11.214;2024-01-16T06:28:22;3.00;;;2.90;;
9986;SDS011;5033;46.310;11.214;2024-01-16T06:30:49;3.35;;;3.15;;
9986;SDS011;5033;46.310;11.214;2024-01-16T06:33:16;4.65;;;3.45;;
9986;SDS011;5033;46.310;11.214;2024-01-16T06:35:43;3.60;;;3.30;;
9986;SDS011;5033;46.310;11.214;2024-01-16T06:38:10;5.40;;;3.70;;
9986;SDS011;5033;46.310;11.214;2024-01-16T06:40:38;4.97;;;4.57;;
9986;SDS011;5033;46.310;11.214;2024-01-16T06:43:06;5.10;;;4.70;;
9986;SDS011;5033;46.310;11.214;2024-01-16T06:45:34;4.93;;;4.53;;
9986;SDS011;5033;46.310;11.214;2024-01-16T06:48:01;4.82;;;4.43;;
9986;SDS011;5033;46.310;11.214;2024-01-16T06:50:28;4.18;;;3.97;;
9986;SDS011;5033;46.310;11.214;2024-01-16T06:52:55;4.70;;;4.35;;
9986;SDS011;5033;46.310;11.214;2024-01-16T06:55:22;4.10;;;3.80;;
9986;SDS011;5033;46.310;11.214;2024-01-16T06:57:49;3.60;;;3.40;;
9986;SDS011;5033;46.310;11.214;2024-01-16T07:00:17;3.80;;;3.60;;
9986;SDS011;5033;46.310;11.214;2024-01-16T07:02:47;4.05;;;3.85;;
9986;SDS011;5033;46.310;11.214;2024-01-16T07:05:16;4.30;;;4.00;;
9986;SDS011;5033;46.310;11.214;2024-01-16T07:07:43;4.00;;;3.78;;
9986;SDS011;5033;46.310;11.214;2024-01-16T07:10:10;3.85;;;3.65;;
9986;SDS011;5033;46.310;11.214;2024-01-16T07:12:43;4.03;;;3.80;;
9986;SDS011;5033;46.310;11.214;2024-01-16T07:15:10;3.63;;;3.42;;
9986;SDS011;5033;46.310;11.214;2024-01-16T07:17:38;3.80;;;3.60;;
9986;SDS011;5033;46.310;11.214;2024-01-16T07:20:06;4.13;;;3.88;;
9986;SDS011;5033;46.310;11.214;2024-01-16T07:22:33;4.03;;;3.83;;
9986;SDS011;5033;46.310;11.214;2024-01-16T07:25:01;3.67;;;3.47;;
9986;SDS011;5033;46.310;11.214;2024-01-16T07:27:28;3.50;;;3.40;;
9986;SDS011;5033;46.310;11.214;2024-01-16T07:29:55;4.10;;;3.80;;
9986;SDS011;5033;46.310;11.214;2024-01-16T07:32:22;3.75;;;3.55;;
9986;SDS011;5033;46.310;11.214;2024-01-16T07:34:50;3.80;;;3.60;;
9986;SDS011;5033;46.310;11.214;2024-01-16T07:37:17;3.97;;;3.78;;
9986;SDS011;5033;46.310;11.214;2024-01-16T07:39:45;4.00;;;3.80;;
9986;SDS011;5033;46.310;11.214;2024-01-16T07:42:12;4.03;;;3.80;;
9986;SDS011;5033;46.310;11.214;2024-01-16T07:44:39;4.20;;;3.92;;
9986;SDS011;5033;46.310;11.214;2024-01-16T07:47:06;4.10;;;3.80;;
9986;SDS011;5033;46.310;11.214;2024-01-16T07:49:33;4.18;;;3.88;;
9986;SDS011;5033;46.310;11.214;2024-01-16T07:52:02;5.18;;;3.70;;
9986;SDS011;5033;46.310;11.214;2024-01-16T07:54:29;3.88;;;3.65;;
9986;SDS011;5033;46.310;11.214;2024-01-16T07:56:57;3.90;;;3.70;;
9986;SDS011;5033;46.310;11.214;2024-01-16T07:59:24;3.53;;;3.33;;
9986;SDS011;5033;46.310;11.214;2024-01-16T08:01:52;4.03;;;3.72;;
9986;SDS011;5033;46.310;11.214;2024-01-16T08:04:19;3.90;;;3.70;;
9986;SDS011;5033;46.310;11.214;2024-01-16T08:06:46;3.88;;;3.67;;
9986;SDS011;5033;46.310;11.214;2024-01-16T08:09:15;3.88;;;3.58;;
9986;SDS011;5033;46.310;11.214;2024-01-16T08:11:42;3.80;;;3.60;;
9986;SDS011;5033;46.310;11.214;2024-01-16T08:14:09;3.90;;;3.70;;
9986;SDS011;5033;46.310;11.214;2024-01-16T08:16:36;4.10;;;3.80;;
9986;SDS011;5033;46.310;11.214;2024-01-16T08:19:03;4.00;;;3.70;;
9986;SDS011;5033;46.310;11.214;2024-01-16T08:21:30;4.25;;;4.00;;
9986;SDS011;5033;46.310;11.214;2024-01-16T08:23:57;4.05;;;3.72;;
9986;SDS011;5033;46.310;11.214;2024-01-16T08:26:26;6.38;;;5.93;;
9986;SDS011;5033;46.310;11.214;2024-01-16T08:28:53;5.32;;;4.93;;
9986;SDS011;5033;46.310;11.214;2024-01-16T08:31:20;5.95;;;5.45;;
9986;SDS011;5033;46.310;11.214;2024-01-16T08:33:47;5.78;;;5.22;;
9986;SDS011;5033;46.310;11.214;2024-01-16T08:36:14;5.10;;;4.70;;
9986;SDS011;5033;46.310;11.214;2024-01-16T08:38:41;4.72;;;4.32;;
9986;SDS011;5033;46.310;11.214;2024-01-16T08:41:09;4.70;;;4.40;;
9986;SDS011;5033;46.310;11.214;2024-01-16T08:43:38;4.57;;;4.28;;
9986;SDS011;5033;46.310;11.214;2024-01-16T08:46:05;3.97;;;3.67;;
9986;SDS011;5033;46.310;11.214;2024-01-16T08:48:32;4.40;;;4.00;;
9986;SDS011;5033;46.310;11.214;2024-01-16T08:50:59;4.40;;;3.95;;
9986;SDS011;5033;46.310;11.214;2024-01-16T08:53:26;4.38;;;3.97;;
9986;SDS011;5033;46.310;11.214;2024-01-16T08:55:53;6.60;;;3.80;;
9986;SDS011;5033;46.310;11.214;2024-01-16T08:58:20;4.20;;;3.90;;
9986;SDS011;5033;46.310;11.214;2024-01-16T09:00:49;4.40;;;4.05;;
9986;SDS011;5033;46.310;11.214;2024-01-16T09:03:16;4.30;;;3.90;;
9986;SDS011;5033;46.310;11.214;2024-01-16T09:05:44;4.75;;;4.32;;
9986;SDS011;5033;46.310;11.214;2024-01-16T09:08:11;4.97;;;4.47;;
9986;SDS011;5033;46.310;11.214;2024-01-16T09:10:38;4.50;;;4.10;;
9986;SDS011;5033;46.310;11.214;2024-01-16T09:13:06;4.32;;;3.92;;
9986;SDS011;5033;46.310;11.214;2024-01-16T09:15:33;4.15;;;3.80;;
9986;SDS011;5033;46.310;11.214;2024-01-16T09:18:01;4.45;;;4.07;;
9986;SDS011;5033;46.310;11.214;2024-01-16T09:20:28;3.95;;;3.65;;
9986;SDS011;5033;46.310;11.214;2024-01-16T09:22:56;4.40;;;4.00;;
9986;SDS011;5033;46.310;11.214;2024-01-16T09:25:23;4.20;;;3.90;;
9986;SDS011;5033;46.310;11.214;2024-01-16T09:27:52;5.88;;;4.20;;
9986;SDS011;5033;46.310;11.214;2024-01-16T09:30:19;4.07;;;3.67;;
9986;SDS011;5033;46.310;11.214;2024-01-16T09:32:47;3.88;;;3.58;;
9986;SDS011;5033;46.310;11.214;2024-01-16T09:35:16;4.65;;;4.25;;
9986;SDS011;5033;46.310;11.214;2024-01-16T09:37:43;3.63;;;3.35;;
9986;SDS011;5033;46.310;11.214;2024-01-16T09:40:10;4.45;;;3.70;;
9986;SDS011;5033;46.310;11.214;2024-01-16T09:42:38;8.18;;;4.72;;
9986;SDS011;5033;46.310;11.214;2024-01-16T09:45:07;5.28;;;4.78;;
9986;SDS011;5033;46.310;11.214;2024-01-16T09:47:35;4.40;;;4.00;;
9986;SDS011;5033;46.310;11.214;2024-01-16T09:50:04;4.72;;;4.30;;
9986;SDS011;5033;46.310;11.214;2024-01-16T09:52:33;5.72;;;5.22;;
9986;SDS011;5033;46.310;11.214;2024-01-16T09:55:01;5.80;;;5.30;;
9986;SDS011;5033;46.310;11.214;2024-01-16T09:57:28;6.03;;;4.80;;
9986;SDS011;5033;46.310;11.214;2024-01-16T09:59:56;5.30;;;4.80;;
9986;SDS011;5033;46.310;11.214;2024-01-16T10:02:28;4.78;;;4.32;;
9986;SDS011;5033;46.310;11.214;2024-01-16T10:04:56;4.22;;;3.83;;
9986;SDS011;5033;46.310;11.214;2024-01-16T10:07:23;3.95;;;3.60;;
9986;SDS011;5033;46.310;11.214;2024-01-16T10:09:57;5.05;;;4.38;;
9986;SDS011;5033;46.310;11.214;2024-01-16T10:12:24;4.43;;;3.78;;
9986;SDS011;5033;46.310;11.214;2024-01-16T10:14:52;4.38;;;4.00;;
9986;SDS011;5033;46.310;11.214;2024-01-16T10:17:21;6.00;;;4.25;;
9986;SDS011;5033;46.310;11.214;2024-01-16T10:20:01;4.07;;;3.67;;
9986;SDS011;5033;46.310;11.214;2024-01-16T10:22:29;5.07;;;3.67;;
9986;SDS011;5033;46.310;11.214;2024-01-16T10:25:08;4.07;;;3.60;;
9986;SDS011;5033;46.310;11.214;2024-01-16T10:27:36;5.47;;;3.83;;
9986;SDS011;5033;46.310;11.214;2024-01-16T10:30:05;3.40;;;3.15;;
9986;SDS011;5033;46.310;11.214;2024-01-16T10:32:33;3.67;;;3.05;;
9986;SDS011;5033;46.310;11.214;2024-01-16T10:35:06;3.40;;;3.20;;
9986;SDS011;5033;46.310;11.214;2024-01-16T10:37:42;3.50;;;3.20;;
9986;SDS011;5033;46.310;11.214;2024-01-16T10:40:17;3.10;;;2.80;;
9986;SDS011;5033;46.310;11.214;2024-01-16T10:42:45;3.53;;;3.28;;
9986;SDS011;5033;46.310;11.214;2024-01-16T10:45:16;3.10;;;2.90;;
9986;SDS011;5033;46.310;11.214;2024-01-16T10:47:45;3.22;;;3.00;;
9986;SDS011;5033;46.310;11.214;2024-01-16T10:50:13;3.33;;;3.03;;
9986;SDS011;5033;46.310;11.214;2024-01-16T10:52:42;3.03;;;2.78;;
9986;SDS011;5033;46.310;11.214;2024-01-16T10:55:18;3.42;;;3.13;;
9986;SDS011;5033;46.310;11.214;2024-01-16T10:57:47;3.25;;;3.05;;
9986;SDS011;5033;46.310;11.214;2024-01-16T11:00:16;2.95;;;2.72;;
9986;SDS011;5033;46.310;11.214;2024-01-16T11:02:49;3.40;;;3.03;;
9986;SDS011;5033;46.310;11.214;2024-01-16T11:05:17;3.50;;;3.20;;
9986;SDS011;5033;46.310;11.214;2024-01-16T11:07:44;4.20;;;3.40;;
9986;SDS011;5033;46.310;11.214;2024-01-16T11:10:12;3.30;;;3.00;;
9986;SDS011;5033;46.310;11.214;2024-01-16T11:12:41;3.33;;;3.00;;
9986;SDS011;5033;46.310;11.214;2024-01-16T11:15:10;3.22;;;3.03;;
9986;SDS011;5033;46.310;11.214;2024-01-16T11:17:38;3.45;;;3.00;;
9986;SDS011;5033;46.310;11.214;2024-01-16T11:20:08;3.42;;;3.13;;
9986;SDS011;5033;46.310;11.214;2024-01-16T11:22:39;3.40;;;3.10;;
9986;SDS011;5033;46.310;11.214;2024-01-16T11:25:08;3.40;;;3.10;;
9986;SDS011;5033;46.310;11.214;2024-01-16T11:27:38;3.70;;;3.40;;
9986;SDS011;5033;46.310;11.214;2024-01-16T11:30:08;2.75;;;2.55;;
9986;SDS011;5033;46.310;11.214;2024-01-16T11:32:37;2.85;;;2.65;;
9986;SDS011;5033;46.310;11.214;2024-01-16T11:35:06;3.08;;;2.85;;
9986;SDS011;5033;46.310;11.214;2024-01-16T11:37:33;3.10;;;2.80;;
9986;SDS011;5033;46.310;11.214;2024-01-16T11:42:58;2.80;;;2.60;;
9986;SDS011;5033;46.310;11.214;2024-01-16T11:48:17;3.17;;;2.97;;
9986;SDS011;5033;46.310;11.214;2024-01-16T11:50:44;2.95;;;2.70;;
9986;SDS011;5033;46.310;11.214;2024-01-16T11:59:01;3.03;;;2.83;;
9986;SDS011;5033;46.310;11.214;2024-01-16T12:01:42;2.42;;;2.22;;
9986;SDS011;5033;46.310;11.214;2024-01-16T12:04:12;2.80;;;2.60;;
9986;SDS011;5033;46.310;11.214;2024-01-16T12:06:43;3.03;;;2.83;;
9986;SDS011;5033;46.310;11.214;2024-01-16T12:09:24;3.72;;;2.70;;
9986;SDS011;5033;46.310;11.214;2024-01-16T12:11:55;3.10;;;2.72;;
9986;SDS011;5033;46.310;11.214;2024-01-16T12:14:23;2.80;;;2.60;;
9986;SDS011;5033;46.310;11.214;2024-01-16T12:16:52;3.10;;;2.80;;
9986;SDS011;5033;46.310;11.214;2024-01-16T12:19:19;2.85;;;2.55;;
9986;SDS011;5033;46.310;11.214;2024-01-16T12:21:46;3.45;;;3.15;;
9986;SDS011;5033;46.310;11.214;2024-01-16T12:24:13;2.92;;;2.72;;
9986;SDS011;5033;46.310;11.214;2024-01-16T12:26:42;2.70;;;2.50;;
9986;SDS011;5033;46.310;11.214;2024-01-16T12:29:09;3.10;;;2.90;;
9986;SDS011;5033;46.310;11.214;2024-01-16T12:31:36;4.53;;;3.33;;
9986;SDS011;5033;46.310;11.214;2024-01-16T12:34:08;3.33;;;3.03;;
9986;SDS011;5033;46.310;11.214;2024-01-16T12:36:35;3.53;;;2.95;;
9986;SDS011;5033;46.310;11.214;2024-01-16T12:39:03;3.53;;;3.22;;
9986;SDS011;5033;46.310;11.214;2024-01-16T12:41:32;2.72;;;2.53;;
9986;SDS011;5033;46.310;11.214;2024-01-16T12:44:02;2.35;;;2.20;;
9986;SDS011;5033;46.310;11.214;2024-01-16T12:46:30;2.72;;;2.53;;
9986;SDS011;5033;46.310;11.214;2024-01-16T12:49:00;2.70;;;2.50;;
9986;SDS011;5033;46.310;11.214;2024-01-16T12:51:29;2.67;;;2.50;;
9986;SDS011;5033;46.310;11.214;2024-01-16T12:54:09;4.53;;;2.83;;
9986;SDS011;5033;46.310;11.214;2024-01-16T12:56:37;2.92;;;2.50;;
9986;SDS011;5033;46.310;11.214;2024-01-16T12:59:08;2.78;;;2.50;;
9986;SDS011;5033;46.310;11.214;2024-01-16T13:01:39;2.13;;;1.92;;
9986;SDS011;5033;46.310;11.214;2024-01-16T13:04:08;2.85;;;2.65;;
9986;SDS011;5033;46.310;11.214;2024-01-16T13:06:36;3.00;;;2.80;;
9986;SDS011;5033;46.310;11.214;2024-01-16T13:09:05;2.83;;;2.33;;
9986;SDS011;5033;46.310;11.214;2024-01-16T13:11:47;2.30;;;2.00;;
9986;SDS011;5033;46.310;11.214;2024-01-16T13:14:15;2.63;;;2.42;;
9986;SDS011;5033;46.310;11.214;2024-01-16T13:16:42;2.65;;;2.45;;
9986;SDS011;5033;46.310;11.214;2024-01-16T13:19:09;2.20;;;2.10;;
9986;SDS011;5033;46.310;11.214;2024-01-16T13:21:38;2.65;;;2.45;;
9986;SDS011;5033;46.310;11.214;2024-01-16T13:24:06;2.50;;;2.30;;
9986;SDS011;5033;46.310;11.214;2024-01-16T13:26:33;2.55;;;2.40;;
9986;SDS011;5033;46.310;11.214;2024-01-16T13:29:02;3.55;;;2.40;;
9986;SDS011;5033;46.310;11.214;2024-01-16T13:31:31;3.83;;;2.75;;
9986;SDS011;5033;46.310;11.214;2024-01-16T13:33:58;3.20;;;2.25;;
9986;SDS011;5033;46.310;11.214;2024-01-16T13:36:25;2.60;;;2.40;;
9986;SDS011;5033;46.310;11.214;2024-01-16T13:38:54;2.58;;;2.22;;
9986;SDS011;5033;46.310;11.214;2024-01-16T13:41:21;3.00;;;2.25;;
9986;SDS011;5033;46.310;11.214;2024-01-16T13:43:48;4.47;;;2.35;;
9986;SDS011;5033;46.310;11.214;2024-01-16T13:46:16;2.50;;;2.30;;
9986;SDS011;5033;46.310;11.214;2024-01-16T13:48:43;2.10;;;2.00;;
9986;SDS011;5033;46.310;11.214;2024-01-16T13:51:10;2.50;;;2.30;;
9986;SDS011;5033;46.310;11.214;2024-01-16T13:53:37;2.70;;;2.42;;
9986;SDS011;5033;46.310;11.214;2024-01-16T13:56:06;2.70;;;2.50;;
9986;SDS011;5033;46.310;11.214;2024-01-16T13:58:33;2.72;;;2.53;;
9986;SDS011;5033;46.310;11.214;2024-01-16T14:01:00;2.83;;;2.63;;
9986;SDS011;5033;46.310;11.214;2024-01-16T14:03:29;3.35;;;2.80;;
9986;SDS011;5033;46.310;11.214;2024-01-16T14:05:56;3.08;;;2.63;;
9986;SDS011;5033;46.310;11.214;2024-01-16T14:08:23;3.40;;;3.10;;
9986;SDS011;5033;46.310;11.214;2024-01-16T14:10:52;4.43;;;4.03;;
9986;SDS011;5033;46.310;11.214;2024-01-16T14:13:21;5.32;;;4.82;;
9986;SDS011;5033;46.310;11.214;2024-01-16T14:15:50;4.75;;;4.25;;
9986;SDS011;5033;46.310;11.214;2024-01-16T14:18:17;4.10;;;3.70;;
9986;SDS011;5033;46.310;11.214;2024-01-16T14:20:44;4.15;;;3.40;;
9986;SDS011;5033;46.310;11.214;2024-01-16T14:23:11;3.53;;;3.20;;
9986;SDS011;5033;46.310;11.214;2024-01-16T14:25:38;2.97;;;2.78;;
9986;SDS011;5033;46.310;11.214;2024-01-16T14:28:05;3.17;;;2.65;;
9986;SDS011;5033;46.310;11.214;2024-01-16T14:30:35;2.50;;;2.33;;
9986;SDS011;5033;46.310;11.214;2024-01-16T14:33:02;3.13;;;2.85;;
9986;SDS011;5033;46.310;11.214;2024-01-16T14:35:31;2.97;;;2.67;;
9986;SDS011;5033;46.310;11.214;2024-01-16T14:37:59;2.70;;;2.50;;
9986;SDS011;5033;46.310;11.214;2024-01-16T14:40:26;2.97;;;2.78;;
9986;SDS011;5033;46.310;11.214;2024-01-16T14:42:53;3.00;;;2.80;;
9986;SDS011;5033;46.310;11.214;2024-01-16T14:45:23;2.83;;;2.63;;
9986;SDS011;5033;46.310;11.214;2024-01-16T14:47:53;3.05;;;2.75;;
9986;SDS011;5033;46.310;11.214;2024-01-16T14:50:20;3.00;;;2.80;;
9986;SDS011;5033;46.310;11.214;2024-01-16T14:52:49;3.05;;;2.80;;
9986;SDS011;5033;46.310;11.214;2024-01-16T14:55:17;2.85;;;2.65;;
9986;SDS011;5033;46.310;11.214;2024-01-16T14:57:45;3.25;;;3.05;;
9986;SDS011;5033;46.310;11.214;2024-01-16T15:00:17;3.50;;;2.95;;
9986;SDS011;5033;46.310;11.214;2024-01-16T15:02:48;3.22;;;2.97;;
9986;SDS011;5033;46.310;11.214;2024-01-16T15:05:17;3.15;;;2.95;;
9986;SDS011;5033;46.310;11.214;2024-01-16T15:07:44;3.30;;;3.00;;
9986;SDS011;5033;46.310;11.214;2024-01-16T15:10:12;3.50;;;3.20;;
9986;SDS011;5033;46.310;11.214;2024-01-16T15:12:41;3.33;;;3.10;;
9986;SDS011;5033;46.310;11.214;2024-01-16T15:15:10;3.13;;;2.85;;
9986;SDS011;5033;46.310;11.214;2024-01-16T15:17:38;3.70;;;3.40;;